sensor_id;sensor_type;location;lat;lon;timestamp;P1;durP1;ratioP1;P2;durP2;ratioP2
60239;SDS011;46102;39.012;-7.064;2022-10-20T00:01:39;0.73;;;0.73;;
60239;SDS011;46102;39.012;-7.064;2022-10-20T00:03:40;1.83;;;0.63;;
60239;SDS011;46102;39.012;-7.064;2022-10-20T00:05:41;1.98;;;0.60;;
60239;SDS011;46102;39.012;-7.064;2022-10-20T00:07:42;1.10;;;0.65;;
60239;SDS011;46102;39.012;-7.064;2022-10-20T00:09:42;0.52;;;0.38;;
60239;SDS011;46102;39.012;-7.064;2022-10-20T00:11:43;0.93;;;0.75;;
60239;SDS011;46102;39.012;-7.064;2022-10-20T00:13:46;1.60;;;0.50;;
60239;SDS011;46102;39.012;-7.064;2022-10-20T00:15:49;1.67;;;0.55;;
60239;SDS011;46102;39.012;-7.064;2022-10-20T00:17:51;0.45;;;0.35;;
60239;SDS011;46102;39.012;-7.064;2022-10-20T00:19:52;3.45;;;0.80;;
60239;SDS011;46102;39.012;-7.064;2022-10-20T00:21:53;0.73;;;0.55;;
60239;SDS011;46102;39.012;-7.064;2022-10-20T00:23:54;0.85;;;0.52;;
60239;SDS011;46102;39.012;-7.064;2022-10-20T00:26:06;0.52;;;0.52;;
60239;SDS011;46102;39.012;-7.064;2022-10-20T00:28:10;1.45;;;0.80;;
60239;SDS011;46102;39.012;-7.064;2022-10-20T00:30:11;2.17;;;1.55;;
60239;SDS011;46102;39.012;-7.064;2022-10-20T00:32:11;0.47;;;0.40;;
60239;SDS011;46102;39.012;-7.064;2022-10-20T00:34:12;0.40;;;0.40;;
60239;SDS011;46102;39.012;-7.064;2022-10-20T00:36:14;1.10;;;0.60;;
60239;SDS011;46102;39.012;-7.064;2022-10-20T00:38:18;1.17;;;0.50;;
60239;SDS011;46102;39.012;-7.064;2022-10-20T00:40:19;2.50;;;0.40;;
60239;SDS011;46102;39.012;-7.064;2022-10-20T00:42:20;0.52;;;0.50;;
60239;SDS011;46102;39.012;-7.064;2022-10-20T00:46:57;0.73;;;0.40;;
60239;SDS011;46102;39.012;-7.064;2022-10-20T00:49:15;1.38;;;0.50;;
60239;SDS011;46102;39.012;-7.064;2022-10-20T00:51:20;0.55;;;0.55;;
60239;SDS011;46102;39.012;-7.064;2022-10-20T00:53:25;0.90;;;0.70;;
60239;SDS011;46102;39.012;-7.064;2022-10-20T00:55:28;1.48;;;0.68;;
60239;SDS011;46102;39.012;-7.064;2022-10-20T00:57:31;1.38;;;0.40;;
60239;SDS011;46102;39.012;-7.064;2022-10-20T00:59:33;0.82;;;0.40;;
60239;SDS011;46102;39.012;-7.064;2022-10-20T01:01:36;0.55;;;0.55;;
60239;SDS011;46102;39.012;-7.064;2022-10-20T01:03:40;0.80;;;0.43;;
60239;SDS011;46102;39.012;-7.064;2022-10-20T01:05:45;0.57;;;0.50;;
60239;SDS011;46102;39.012;-7.064;2022-10-20T01:07:45;1.98;;;0.70;;
60239;SDS011;46102;39.012;-7.064;2022-10-20T01:09:46;1.77;;;0.70;;
60239;SDS011;46102;39.012;-7.064;2022-10-20T01:18:56;1.10;;;0.32;;
60239;SDS011;46102;39.012;-7.064;2022-10-20T01:27:47;0.45;;;0.43;;
60239;SDS011;46102;39.012;-7.064;2022-10-20T01:36:53;0.60;;;0.60;;
60239;SDS011;46102;39.012;-7.064;2022-10-20T01:39:04;0.60;;;0.60;;
60239;SDS011;46102;39.012;-7.064;2022-10-20T01:41:26;0.47;;;0.45;;
60239;SDS011;46102;39.012;-7.064;2022-10-20T01:43:34;0.70;;;0.70;;
60239;SDS011;46102;39.012;-7.064;2022-10-20T01:45:38;0.55;;;0.55;;
60239;SDS011;46102;39.012;-7.064;2022-10-20T01:47:44;2.45;;;0.47;;
60239;SDS011;46102;39.012;-7.064;2022-10-20T01:49:47;2.70;;;0.60;;
60239;SDS011;46102;39.012;-7.064;2022-10-20T01:51:49;0.85;;;0.50;;
60239;SDS011;46102;39.012;-7.064;2022-10-20T01:53:50;2.03;;;0.40;;
60239;SDS011;46102;39.012;-7.064;2022-10-20T01:55:51;0.50;;;0.50;;
60239;SDS011;46102;39.012;-7.064;2022-10-20T02:00:22;2.50;;;0.70;;
60239;SDS011;46102;39.012;-7.064;2022-10-20T02:02:30;0.43;;;0.40;;
60239;SDS011;46102;39.012;-7.064;2022-10-20T02:07:07;1.02;;;0.80;;
60239;SDS011;46102;39.012;-7.064;2022-10-20T02:09:22;1.63;;;0.70;;
60239;SDS011;46102;39.012;-7.064;2022-10-20T02:14:08;0.82;;;0.70;;
60239;SDS011;46102;39.012;-7.064;2022-10-20T02:16:15;3.70;;;0.52;;
60239;SDS011;46102;39.012;-7.064;2022-10-20T02:18:23;1.73;;;0.70;;
60239;SDS011;46102;39.012;-7.064;2022-10-20T02:20:33;0.75;;;0.60;;
60239;SDS011;46102;39.012;-7.064;2022-10-20T02:22:34;2.20;;;0.88;;
60239;SDS011;46102;39.012;-7.064;2022-10-20T02:24:37;1.33;;;0.73;;
60239;SDS011;46102;39.012;-7.064;2022-10-20T02:26:39;0.82;;;0.82;;
60239;SDS011;46102;39.012;-7.064;2022-10-20T02:28:42;1.20;;;1.10;;
60239;SDS011;46102;39.012;-7.064;2022-10-20T02:30:47;1.27;;;0.95;;
60239;SDS011;46102;39.012;-7.064;2022-10-20T02:32:50;2.63;;;0.98;;
60239;SDS011;46102;39.012;-7.064;2022-10-20T02:34:52;1.40;;;0.88;;
60239;SDS011;46102;39.012;-7.064;2022-10-20T02:36:56;0.68;;;0.68;;
60239;SDS011;46102;39.012;-7.064;2022-10-20T02:38:58;4.55;;;0.88;;
60239;SDS011;46102;39.012;-7.064;2022-10-20T02:40:58;4.25;;;0.70;;
60239;SDS011;46102;39.012;-7.064;2022-10-20T02:42:59;0.95;;;0.70;;
60239;SDS011;46102;39.012;-7.064;2022-10-20T02:45:00;4.22;;;0.70;;
60239;SDS011;46102;39.012;-7.064;2022-10-20T02:47:01;4.28;;;1.50;;
60239;SDS011;46102;39.012;-7.064;2022-10-20T02:49:02;3.05;;;1.17;;
60239;SDS011;46102;39.012;-7.064;2022-10-20T02:51:05;5.38;;;1.00;;
60239;SDS011;46102;39.012;-7.064;2022-10-20T02:53:06;2.75;;;1.10;;
60239;SDS011;46102;39.012;-7.064;2022-10-20T02:55:07;4.28;;;1.40;;
60239;SDS011;46102;39.012;-7.064;2022-10-20T02:57:08;5.22;;;1.30;;
60239;SDS011;46102;39.012;-7.064;2022-10-20T02:59:11;2.85;;;1.42;;
60239;SDS011;46102;39.012;-7.064;2022-10-20T03:01:13;4.47;;;0.90;;
60239;SDS011;46102;39.012;-7.064;2022-10-20T03:03:14;6.20;;;1.48;;
60239;SDS011;46102;39.012;-7.064;2022-10-20T03:05:14;2.90;;;1.10;;
60239;SDS011;46102;39.012;-7.064;2022-10-20T03:07:15;4.15;;;1.02;;
60239;SDS011;46102;39.012;-7.064;2022-10-20T03:09:16;5.75;;;1.27;;
60239;SDS011;46102;39.012;-7.064;2022-10-20T03:11:17;4.53;;;1.60;;
60239;SDS011;46102;39.012;-7.064;2022-10-20T03:13:18;6.78;;;1.60;;
60239;SDS011;46102;39.012;-7.064;2022-10-20T03:15:18;9.40;;;1.20;;
60239;SDS011;46102;39.012;-7.064;2022-10-20T03:17:19;6.22;;;1.77;;
60239;SDS011;46102;39.012;-7.064;2022-10-20T03:19:20;4.18;;;1.50;;
60239;SDS011;46102;39.012;-7.064;2022-10-20T03:21:21;5.93;;;1.67;;
60239;SDS011;46102;39.012;-7.064;2022-10-20T03:23:21;5.68;;;1.80;;
60239;SDS011;46102;39.012;-7.064;2022-10-20T03:25:22;6.07;;;1.90;;
60239;SDS011;46102;39.012;-7.064;2022-10-20T03:27:25;5.40;;;2.33;;
60239;SDS011;46102;39.012;-7.064;2022-10-20T03:29:26;4.20;;;1.40;;
60239;SDS011;46102;39.012;-7.064;2022-10-20T03:31:26;7.80;;;1.70;;
60239;SDS011;46102;39.012;-7.064;2022-10-20T03:33:27;5.18;;;2.15;;
60239;SDS011;46102;39.012;-7.064;2022-10-20T03:35:28;6.05;;;2.45;;
60239;SDS011;46102;39.012;-7.064;2022-10-20T03:37:29;7.38;;;1.48;;
60239;SDS011;46102;39.012;-7.064;2022-10-20T03:39:29;5.95;;;1.85;;
60239;SDS011;46102;39.012;-7.064;2022-10-20T03:41:30;3.13;;;1.48;;
60239;SDS011;46102;39.012;-7.064;2022-10-20T03:43:31;4.13;;;1.45;;
60239;SDS011;46102;39.012;-7.064;2022-10-20T03:45:32;4.80;;;1.27;;
60239;SDS011;46102;39.012;-7.064;2022-10-20T03:47:33;8.60;;;1.65;;
60239;SDS011;46102;39.012;-7.064;2022-10-20T03:49:33;6.40;;;2.03;;
60239;SDS011;46102;39.012;-7.064;2022-10-20T03:51:34;5.72;;;2.33;;
60239;SDS011;46102;39.012;-7.064;2022-10-20T03:53:35;9.10;;;1.50;;
60239;SDS011;46102;39.012;-7.064;2022-10-20T03:55:36;2.78;;;1.80;;
60239;SDS011;46102;39.012;-7.064;2022-10-20T03:57:36;7.10;;;1.13;;
60239;SDS011;46102;39.012;-7.064;2022-10-20T03:59:37;8.50;;;2.35;;
60239;SDS011;46102;39.012;-7.064;2022-10-20T04:01:38;6.03;;;2.40;;
60239;SDS011;46102;39.012;-7.064;2022-10-20T04:03:43;4.75;;;1.40;;
60239;SDS011;46102;39.012;-7.064;2022-10-20T04:05:46;4.77;;;1.67;;
60239;SDS011;46102;39.012;-7.064;2022-10-20T04:07:47;2.65;;;1.52;;
60239;SDS011;46102;39.012;-7.064;2022-10-20T04:09:48;11.07;;;1.83;;
60239;SDS011;46102;39.012;-7.064;2022-10-20T04:11:48;8.05;;;2.20;;
60239;SDS011;46102;39.012;-7.064;2022-10-20T04:13:49;6.43;;;2.00;;
60239;SDS011;46102;39.012;-7.064;2022-10-20T04:15:50;3.10;;;2.15;;
60239;SDS011;46102;39.012;-7.064;2022-10-20T04:17:51;3.58;;;2.28;;
60239;SDS011;46102;39.012;-7.064;2022-10-20T04:19:52;8.75;;;2.60;;
60239;SDS011;46102;39.012;-7.064;2022-10-20T04:21:53;4.60;;;2.67;;
60239;SDS011;46102;39.012;-7.064;2022-10-20T04:23:53;6.72;;;2.67;;
60239;SDS011;46102;39.012;-7.064;2022-10-20T04:25:54;4.70;;;2.55;;
60239;SDS011;46102;39.012;-7.064;2022-10-20T04:27:55;4.38;;;2.10;;
60239;SDS011;46102;39.012;-7.064;2022-10-20T04:29:55;3.33;;;2.00;;
60239;SDS011;46102;39.012;-7.064;2022-10-20T04:31:56;4.00;;;1.85;;
60239;SDS011;46102;39.012;-7.064;2022-10-20T04:33:57;5.05;;;2.38;;
60239;SDS011;46102;39.012;-7.064;2022-10-20T04:35:59;7.10;;;2.30;;
60239;SDS011;46102;39.012;-7.064;2022-10-20T04:38:01;3.65;;;2.10;;
60239;SDS011;46102;39.012;-7.064;2022-10-20T04:40:02;5.88;;;2.35;;
60239;SDS011;46102;39.012;-7.064;2022-10-20T04:42:03;3.70;;;2.80;;
60239;SDS011;46102;39.012;-7.064;2022-10-20T04:44:04;3.08;;;2.08;;
60239;SDS011;46102;39.012;-7.064;2022-10-20T04:46:05;8.40;;;2.22;;
60239;SDS011;46102;39.012;-7.064;2022-10-20T04:48:06;2.70;;;1.73;;
60239;SDS011;46102;39.012;-7.064;2022-10-20T04:50:07;13.57;;;2.35;;
60239;SDS011;46102;39.012;-7.064;2022-10-20T04:52:09;8.90;;;2.10;;
60239;SDS011;46102;39.012;-7.064;2022-10-20T04:54:09;3.75;;;1.65;;
60239;SDS011;46102;39.012;-7.064;2022-10-20T04:56:14;7.32;;;2.00;;
60239;SDS011;46102;39.012;-7.064;2022-10-20T04:58:18;5.45;;;2.40;;
60239;SDS011;46102;39.012;-7.064;2022-10-20T05:00:19;4.88;;;2.08;;
60239;SDS011;46102;39.012;-7.064;2022-10-20T05:02:20;5.20;;;2.10;;
60239;SDS011;46102;39.012;-7.064;2022-10-20T05:04:20;4.57;;;1.60;;
60239;SDS011;46102;39.012;-7.064;2022-10-20T05:06:23;5.90;;;1.92;;
60239;SDS011;46102;39.012;-7.064;2022-10-20T05:08:26;2.20;;;1.52;;
60239;SDS011;46102;39.012;-7.064;2022-10-20T05:10:27;6.63;;;1.65;;
60239;SDS011;46102;39.012;-7.064;2022-10-20T05:12:27;3.55;;;1.42;;
60239;SDS011;46102;39.012;-7.064;2022-10-20T05:14:28;5.65;;;1.25;;
60239;SDS011;46102;39.012;-7.064;2022-10-20T05:16:29;4.70;;;1.50;;
60239;SDS011;46102;39.012;-7.064;2022-10-20T05:18:30;4.57;;;2.08;;
60239;SDS011;46102;39.012;-7.064;2022-10-20T05:20:31;12.00;;;2.17;;
60239;SDS011;46102;39.012;-7.064;2022-10-20T05:22:32;6.82;;;1.40;;
60239;SDS011;46102;39.012;-7.064;2022-10-20T05:24:33;5.50;;;1.20;;
60239;SDS011;46102;39.012;-7.064;2022-10-20T05:26:34;6.85;;;2.78;;
60239;SDS011;46102;39.012;-7.064;2022-10-20T05:28:36;11.15;;;1.60;;
60239;SDS011;46102;39.012;-7.064;2022-10-20T05:30:37;5.13;;;1.25;;
60239;SDS011;46102;39.012;-7.064;2022-10-20T05:32:38;2.05;;;1.02;;
60239;SDS011;46102;39.012;-7.064;2022-10-20T05:34:39;4.07;;;1.52;;
60239;SDS011;46102;39.012;-7.064;2022-10-20T05:36:40;5.88;;;1.90;;
60239;SDS011;46102;39.012;-7.064;2022-10-20T05:38:40;1.02;;;0.85;;
60239;SDS011;46102;39.012;-7.064;2022-10-20T05:40:41;3.28;;;1.02;;
60239;SDS011;46102;39.012;-7.064;2022-10-20T05:42:42;7.15;;;1.35;;
60239;SDS011;46102;39.012;-7.064;2022-10-20T05:44:43;4.47;;;1.20;;
60239;SDS011;46102;39.012;-7.064;2022-10-20T05:46:43;3.45;;;0.98;;
60239;SDS011;46102;39.012;-7.064;2022-10-20T05:48:44;5.00;;;1.17;;
60239;SDS011;46102;39.012;-7.064;2022-10-20T05:50:46;1.77;;;1.05;;
60239;SDS011;46102;39.012;-7.064;2022-10-20T05:52:46;4.35;;;1.13;;
60239;SDS011;46102;39.012;-7.064;2022-10-20T05:54:47;4.10;;;0.90;;
60239;SDS011;46102;39.012;-7.064;2022-10-20T05:56:48;1.88;;;1.08;;
60239;SDS011;46102;39.012;-7.064;2022-10-20T05:58:49;7.25;;;1.00;;
60239;SDS011;46102;39.012;-7.064;2022-10-20T06:00:50;4.40;;;0.75;;
60239;SDS011;46102;39.012;-7.064;2022-10-20T06:02:53;1.70;;;0.60;;
60239;SDS011;46102;39.012;-7.064;2022-10-20T06:04:53;5.53;;;1.10;;
60239;SDS011;46102;39.012;-7.064;2022-10-20T06:06:54;5.15;;;1.00;;
60239;SDS011;46102;39.012;-7.064;2022-10-20T06:08:56;3.10;;;0.63;;
60239;SDS011;46102;39.012;-7.064;2022-10-20T06:11:04;4.10;;;0.90;;
60239;SDS011;46102;39.012;-7.064;2022-10-20T06:13:06;4.03;;;0.82;;
60239;SDS011;46102;39.012;-7.064;2022-10-20T06:15:07;5.70;;;1.27;;
60239;SDS011;46102;39.012;-7.064;2022-10-20T06:17:08;7.32;;;0.90;;
60239;SDS011;46102;39.012;-7.064;2022-10-20T06:19:09;5.03;;;1.05;;
60239;SDS011;46102;39.012;-7.064;2022-10-20T06:21:11;0.98;;;0.50;;
60239;SDS011;46102;39.012;-7.064;2022-10-20T06:23:23;3.30;;;0.80;;
60239;SDS011;46102;39.012;-7.064;2022-10-20T06:25:24;6.15;;;0.85;;
60239;SDS011;46102;39.012;-7.064;2022-10-20T06:27:24;5.57;;;0.73;;
60239;SDS011;46102;39.012;-7.064;2022-10-20T06:29:25;3.00;;;0.68;;
60239;SDS011;46102;39.012;-7.064;2022-10-20T06:31:30;6.30;;;1.08;;
60239;SDS011;46102;39.012;-7.064;2022-10-20T06:33:35;1.55;;;0.65;;
60239;SDS011;46102;39.012;-7.064;2022-10-20T06:35:36;4.80;;;0.80;;
60239;SDS011;46102;39.012;-7.064;2022-10-20T06:37:37;3.95;;;0.88;;
60239;SDS011;46102;39.012;-7.064;2022-10-20T06:39:38;10.07;;;0.80;;
60239;SDS011;46102;39.012;-7.064;2022-10-20T06:41:39;3.67;;;0.95;;
60239;SDS011;46102;39.012;-7.064;2022-10-20T06:43:44;2.03;;;0.90;;
60239;SDS011;46102;39.012;-7.064;2022-10-20T06:45:52;3.22;;;0.47;;
60239;SDS011;46102;39.012;-7.064;2022-10-20T06:47:54;4.15;;;0.90;;
60239;SDS011;46102;39.012;-7.064;2022-10-20T06:49:55;4.05;;;0.90;;
60239;SDS011;46102;39.012;-7.064;2022-10-20T06:51:56;4.22;;;0.95;;
60239;SDS011;46102;39.012;-7.064;2022-10-20T06:53:57;4.30;;;0.75;;
60239;SDS011;46102;39.012;-7.064;2022-10-20T06:56:00;3.88;;;1.52;;
60239;SDS011;46102;39.012;-7.064;2022-10-20T06:58:02;3.72;;;1.73;;
60239;SDS011;46102;39.012;-7.064;2022-10-20T07:00:03;3.88;;;0.80;;
60239;SDS011;46102;39.012;-7.064;2022-10-20T07:02:05;4.65;;;1.00;;
60239;SDS011;46102;39.012;-7.064;2022-10-20T07:04:06;4.60;;;0.85;;
